Time;durP1;ratioP1;P1;durP2;ratioP2;P2;SDS_P1;SDS_P2;PMS_P1;PMS_P2;Temp;Humidity;BMP_temperature;BMP_pressure;BME280_temperature;BME280_humidity;BME280_pressure;Samples;Min_cycle;Max_cycle;Signal;HPM_P1;HPM_P2
2022/01/22 00:01:04;;;;;;;11.70;6.80;;;;;;;2.90;100.00;101315.94;5041125;28;20319;-75
2022/01/22 00:03:33;;;;;;;9.48;6.75;;;;;;;2.91;100.00;101328.91;5047159;28;20390;-76
2022/01/22 00:06:00;;;;;;;10.40;7.07;;;;;;;2.94;100.00;101326.25;5044830;28;20558;-75
2022/01/22 00:08:28;;;;;;;8.95;6.43;;;;;;;2.96;100.00;101331.41;5028782;28;20127;-75
2022/01/22 00:10:55;;;;;;;9.82;6.97;;;;;;;2.96;100.00;101327.06;5042991;28;20060;-75
2022/01/22 00:16:09;;;;;;;11.00;7.15;;;;;;;3.02;100.00;101314.00;5067661;28;20405;-75
2022/01/22 00:18:37;;;;;;;8.65;6.28;;;;;;;3.08;100.00;101323.41;5046043;28;20045;-75
2022/01/22 00:21:04;;;;;;;11.95;7.15;;;;;;;3.16;100.00;101320.69;5033207;28;20068;-75
2022/01/22 00:23:32;;;;;;;13.80;7.53;;;;;;;3.12;100.00;101319.03;5031848;28;20139;-75
2022/01/22 00:25:59;;;;;;;10.35;7.00;;;;;;;3.13;100.00;101321.59;5028841;28;20116;-75
2022/01/22 00:28:27;;;;;;;13.85;7.78;;;;;;;3.16;100.00;101318.09;5071244;28;20521;-76
2022/01/22 00:30:54;;;;;;;10.27;7.25;;;;;;;3.13;100.00;101319.00;5050011;28;20048;-75
2022/01/22 00:33:21;;;;;;;15.52;8.45;;;;;;;3.20;100.00;101315.41;5049552;28;20080;-75
2022/01/22 00:35:48;;;;;;;14.63;8.82;;;;;;;3.19;100.00;101313.69;5048775;28;20054;-75
2022/01/22 00:38:16;;;;;;;10.95;7.70;;;;;;;3.22;100.00;101307.56;5036975;28;20124;-76
2022/01/22 00:40:50;;;;;;;13.45;8.48;;;;;;;3.21;100.00;101311.06;5055238;28;21007;-74
2022/01/22 00:43:17;;;;;;;17.58;8.88;;;;;;;3.19;100.00;101316.28;5052281;28;20135;-75
2022/01/22 00:45:44;;;;;;;13.23;8.25;;;;;;;3.20;100.00;101322.38;5032750;28;20049;-74
2022/01/22 00:48:12;;;;;;;12.05;7.82;;;;;;;3.24;100.00;101326.59;5070568;28;20044;-75
2022/01/22 00:50:39;;;;;;;12.77;8.80;;;;;;;3.22;100.00;101331.00;5052708;28;20392;-76
2022/01/22 00:53:06;;;;;;;11.32;8.27;;;;;;;3.19;100.00;101331.88;5089663;28;20151;-74
2022/01/22 00:55:34;;;;;;;11.13;8.57;;;;;;;3.23;100.00;101337.91;5034535;28;20041;-75
2022/01/22 00:58:01;;;;;;;13.80;8.65;;;;;;;3.22;100.00;101333.59;5077584;28;20408;-76
2022/01/22 01:00:28;;;;;;;13.27;8.40;;;;;;;3.26;100.00;101338.72;5057006;28;20545;-78
2022/01/22 01:02:55;;;;;;;11.90;8.88;;;;;;;3.27;100.00;101339.56;5031950;28;20106;-77
2022/01/22 01:05:23;;;;;;;12.32;9.52;;;;;;;3.26;100.00;101359.53;5066308;28;20052;-75
2022/01/22 01:07:50;;;;;;;14.35;9.23;;;;;;;3.30;100.00;101355.13;5056422;28;20071;-76
2022/01/22 01:10:19;;;;;;;12.10;8.30;;;;;;;3.37;100.00;101348.06;5048656;28;20055;-75
2022/01/22 01:12:47;;;;;;;14.82;8.88;;;;;;;3.29;100.00;101359.50;5044961;28;20036;-75
2022/01/22 01:15:41;;;;;;;12.10;9.05;;;;;;;3.31;100.00;101356.84;5057502;28;20530;-74
2022/01/22 01:34:27;;;;;;;11.02;7.22;;;;;;;3.29;100.00;101371.66;5077916;28;20143;-74
2022/01/22 01:36:55;;;;;;;9.20;6.20;;;;;;;3.23;100.00;101380.38;5057054;28;20045;-73
2022/01/22 01:39:24;;;;;;;8.95;6.70;;;;;;;3.24;100.00;101379.53;5031973;28;20543;-75
2022/01/22 01:42:00;;;;;;;8.75;5.97;;;;;;;3.21;100.00;101381.31;5062760;28;20076;-75
2022/01/22 01:44:28;;;;;;;6.00;5.00;;;;;;;3.26;100.00;101384.69;5035573;28;20040;-74
2022/01/22 01:46:59;;;;;;;8.48;5.63;;;;;;;3.22;100.00;101390.84;5048186;28;20143;-75
2022/01/22 01:49:28;;;;;;;8.63;5.60;;;;;;;3.25;100.00;101389.03;5069628;28;20036;-74
2022/01/22 01:51:58;;;;;;;8.07;5.57;;;;;;;3.25;100.00;101401.19;5074105;28;20287;-74
2022/01/22 01:59:52;;;;;;;7.80;5.40;;;;;;;3.27;100.00;101408.09;5053161;28;20052;-75
2022/01/22 02:02:19;;;;;;;7.50;5.97;;;;;;;3.27;100.00;101409.81;5043973;28;20058;-75
2022/01/22 02:04:46;;;;;;;6.82;5.35;;;;;;;3.28;100.00;101407.19;5029509;28;20045;-75
2022/01/22 02:07:13;;;;;;;6.88;5.57;;;;;;;3.27;100.00;101408.09;5049024;28;20080;-75
2022/01/22 02:09:42;;;;;;;6.20;5.22;;;;;;;3.26;100.00;101416.78;5030624;28;20131;-75
2022/01/22 02:12:17;;;;;;;6.97;5.15;;;;;;;3.25;100.00;101417.66;5068264;28;20052;-74
2022/01/22 02:25:49;;;;;;;7.82;5.95;;;;;;;3.12;100.00;101449.09;5059563;28;20589;-74
2022/01/22 02:28:16;;;;;;;6.82;5.05;;;;;;;3.17;100.00;101450.75;5045796;28;20099;-75
2022/01/22 02:31:00;;;;;;;7.25;5.25;;;;;;;3.20;100.00;101457.66;5046452;28;20063;-74
2022/01/22 02:33:40;;;;;;;8.57;5.15;;;;;;;3.21;100.00;101461.97;5058347;28;20079;-76
2022/01/22 02:36:22;;;;;;;6.55;5.47;;;;;;;3.23;100.00;101465.41;5053610;28;20644;-74
2022/01/22 02:39:07;;;;;;;6.07;4.90;;;;;;;3.25;100.00;101468.84;5048538;28;20132;-75
2022/01/22 02:41:37;;;;;;;10.75;6.00;;;;;;;3.18;100.00;101460.28;5055884;28;20141;-74
2022/01/22 02:44:04;;;;;;;8.07;5.30;;;;;;;3.19;100.00;101459.38;5045127;28;20051;-75
2022/01/22 02:46:32;;;;;;;7.40;5.43;;;;;;;3.22;100.00;101469.75;5033742;28;20136;-75
2022/01/22 02:48:59;;;;;;;7.22;5.25;;;;;;;3.23;100.00;101462.81;5069535;28;20494;-75
2022/01/22 02:51:27;;;;;;;7.25;5.05;;;;;;;3.22;100.00;101461.09;5069005;28;20044;-76
2022/01/22 02:54:00;;;;;;;7.03;5.13;;;;;;;3.21;100.00;101464.59;5051637;28;20080;-74
2022/01/22 02:56:27;;;;;;;7.80;5.40;;;;;;;3.18;100.00;101469.81;5071094;28;20416;-75
2022/01/22 02:58:54;;;;;;;8.52;5.68;;;;;;;3.15;100.00;101481.16;5062326;28;20499;-75
2022/01/22 03:01:23;;;;;;;6.85;5.00;;;;;;;3.14;100.00;101470.75;5047830;28;20080;-76
2022/01/22 03:03:50;;;;;;;10.98;4.97;;;;;;;3.17;100.00;101468.97;5023370;28;20041;-75
2022/01/22 03:06:18;;;;;;;10.32;5.25;;;;;;;3.14;100.00;101479.41;5059235;28;20548;-74
2022/01/22 03:08:47;;;;;;;7.88;5.20;;;;;;;3.11;100.00;101482.06;5055149;28;20037;-75
2022/01/22 03:11:22;;;;;;;7.88;4.90;;;;;;;3.18;100.00;101490.63;5071438;28;20527;-74
2022/01/22 03:16:54;;;;;;;7.40;5.22;;;;;;;3.16;100.00;101489.81;5057903;28;20045;-75
2022/01/22 03:19:56;;;;;;;6.07;4.78;;;;;;;3.14;100.00;101488.97;5044243;28;20044;-75
2022/01/22 03:22:26;;;;;;;5.68;3.55;;;;;;;3.10;100.00;101484.69;5071439;28;20044;-75
2022/01/22 03:27:40;;;;;;;4.50;3.00;;;;;;;3.06;100.00;101499.47;5062560;28;20106;-74
2022/01/22 03:30:07;;;;;;;8.35;3.40;;;;;;;2.98;100.00;101499.59;5061447;28;20123;-75
2022/01/22 03:32:41;;;;;;;4.13;2.92;;;;;;;2.93;100.00;101508.34;5055117;28;20044;-76
2022/01/22 03:37:51;;;;;;;4.90;2.83;;;;;;;2.73;100.00;101519.84;5051507;28;20553;-75
2022/01/22 03:40:21;;;;;;;6.63;3.22;;;;;;;2.63;100.00;101518.22;5068218;28;20067;-75
2022/01/22 03:42:50;;;;;;;4.15;2.60;;;;;;;2.54;100.00;101518.34;5046560;28;20040;-75
2022/01/22 03:45:18;;;;;;;8.00;3.90;;;;;;;2.49;100.00;101504.53;5047963;28;20129;-75
2022/01/22 03:47:45;;;;;;;6.25;3.42;;;;;;;2.40;100.00;101512.44;5066533;28;20049;-74
2022/01/22 03:50:14;;;;;;;5.82;3.30;;;;;;;2.34;100.00;101515.94;5062743;28;20124;-76
2022/01/22 03:52:42;;;;;;;8.02;4.13;;;;;;;2.28;100.00;101527.28;5066736;28;20053;-74
2022/01/22 03:55:16;;;;;;;5.80;3.92;;;;;;;2.26;100.00;101529.03;5077356;28;20076;-75
2022/01/22 03:57:43;;;;;;;6.80;4.35;;;;;;;2.24;100.00;101529.91;5067867;28;20039;-76
2022/01/22 04:00:10;;;;;;;10.13;4.78;;;;;;;2.20;100.00;101536.00;5029805;28;20110;-75
2022/01/22 04:03:25;;;;;;;7.97;4.50;;;;;;;2.12;100.00;101535.25;5062886;28;20583;-74
2022/01/22 04:06:03;;;;;;;7.50;4.60;;;;;;;2.08;100.00;101538.75;5061401;28;20045;-74
2022/01/22 04:08:30;;;;;;;7.85;5.15;;;;;;;2.03;100.00;101551.78;5068522;28;20135;-75
2022/01/22 04:10:57;;;;;;;9.05;5.07;;;;;;;2.00;100.00;101560.44;5064968;28;20170;-74
2022/01/22 04:13:31;;;;;;;8.35;4.65;;;;;;;1.95;100.00;101569.16;5065697;28;20454;-76
2022/01/22 04:15:59;;;;;;;5.95;4.00;;;;;;;1.97;100.00;101567.41;5047224;28;20143;-74
2022/01/22 04:26:56;;;;;;;6.43;3.88;;;;;;;1.84;100.00;101579.59;5052363;28;20055;-74
2022/01/22 04:29:25;;;;;;;7.13;4.32;;;;;;;1.87;100.00;101582.19;5047494;28;20048;-74
2022/01/22 04:31:52;;;;;;;9.20;4.25;;;;;;;1.91;100.00;101590.81;5037060;28;20057;-74
2022/01/22 04:34:20;;;;;;;5.72;3.58;;;;;;;1.98;100.00;101593.38;5038648;28;20141;-74
2022/01/22 04:36:47;;;;;;;7.85;4.28;;;;;;;2.06;100.00;101597.63;5027969;28;20045;-76
2022/01/22 04:39:14;;;;;;;6.22;3.50;;;;;;;2.13;100.00;101597.56;5055355;28;20670;-74
2022/01/22 04:41:41;;;;;;;7.85;3.97;;;;;;;2.20;100.00;101598.38;5056881;28;20794;-76
2022/01/22 04:44:09;;;;;;;14.05;3.45;;;;;;;2.23;100.00;101606.13;5042831;28;20064;-75
2022/01/22 04:57:20;;;;;;;10.43;3.85;;;;;;;2.34;100.00;101632.00;5016265;28;20063;-74
2022/01/22 04:59:47;;;;;;;9.13;3.78;;;;;;;2.26;100.00;101640.75;5045974;28;20076;-73
2022/01/22 05:02:15;;;;;;;7.45;3.58;;;;;;;2.20;100.00;101639.94;5047745;28;20395;-76
2022/01/22 05:04:42;;;;;;;8.20;3.33;;;;;;;2.18;100.00;101646.88;5060530;28;20055;-75
2022/01/22 05:07:10;;;;;;;6.78;3.33;;;;;;;2.17;100.00;101643.44;5065027;28;20506;-75
2022/01/22 05:09:37;;;;;;;7.57;3.42;;;;;;;2.13;100.00;101656.47;5065770;28;20044;-74
2022/01/22 05:12:06;;;;;;;9.13;3.40;;;;;;;2.15;100.00;101660.75;5053545;28;20573;-75
2022/01/22 05:14:33;;;;;;;10.52;3.28;;;;;;;2.19;100.00;101662.44;5050959;28;20049;-75
2022/01/22 05:17:03;;;;;;;9.75;3.25;;;;;;;2.19;100.00;101666.78;5081937;28;20067;-75
2022/01/22 05:19:45;;;;;;;9.13;3.83;;;;;;;2.20;100.00;101669.38;5046429;28;20527;-75
2022/01/22 05:22:30;;;;;;;9.40;3.17;;;;;;;2.16;100.00;101679.78;5067005;28;20497;-74
2022/01/22 05:25:02;;;;;;;9.43;3.33;;;;;;;2.18;100.00;101676.31;5055680;28;20058;-75
2022/01/22 05:32:36;;;;;;;4.65;3.00;;;;;;;1.95;100.00;101683.41;5071445;28;20131;-75
2022/01/22 05:37:49;;;;;;;4.78;2.88;;;;;;;1.78;100.00;101697.34;5050741;28;20040;-74
2022/01/22 05:40:17;;;;;;;7.95;3.00;;;;;;;1.78;100.00;101694.75;5064213;28;20131;-75
2022/01/22 05:42:44;;;;;;;13.07;4.50;;;;;;;1.78;100.00;101705.13;5048145;28;20222;-74
2022/01/22 05:45:11;;;;;;;10.20;2.92;;;;;;;1.77;100.00;101712.94;5028705;28;20067;-74
2022/01/22 05:47:39;;;;;;;8.88;3.70;;;;;;;1.68;100.00;101715.59;5042990;28;20045;-76
2022/01/22 05:50:12;;;;;;;6.70;2.97;;;;;;;1.65;100.00;101721.66;5057601;28;20140;-75
2022/01/22 05:52:54;;;;;;;4.65;2.80;;;;;;;1.60;100.00;101730.34;5064916;28;20068;-74
2022/01/22 06:00:53;;;;;;;12.30;3.58;;;;;;;1.39;100.00;101741.63;5062382;28;20135;-73
2022/01/22 06:03:20;;;;;;;8.10;3.30;;;;;;;1.50;100.00;101743.34;5076465;28;20606;-75
2022/01/22 06:05:47;;;;;;;7.57;2.92;;;;;;;1.38;100.00;101747.72;5057431;28;20132;-75
2022/01/22 06:08:16;;;;;;;9.63;3.33;;;;;;;1.37;100.00;101752.03;5050974;28;20056;-74
2022/01/22 06:10:47;;;;;;;9.15;3.50;;;;;;;1.31;100.00;101761.59;5063777;28;20622;-75
2022/01/22 06:13:18;;;;;;;5.82;3.20;;;;;;;1.24;100.00;101765.91;5063985;28;20177;-74
2022/01/22 06:15:45;;;;;;;6.65;3.15;;;;;;;1.21;100.00;101771.09;5050670;28;20143;-74
2022/01/22 06:18:12;;;;;;;9.82;3.00;;;;;;;1.15;100.00;101776.28;5034806;28;20036;-75
2022/01/22 06:20:40;;;;;;;11.70;3.50;;;;;;;1.16;100.00;101785.78;5043443;28;20071;-75
2022/01/22 06:23:07;;;;;;;6.95;3.45;;;;;;;1.18;100.00;101786.69;5043626;28;20488;-75
2022/01/22 06:25:34;;;;;;;8.38;3.35;;;;;;;1.22;100.00;101793.59;5055537;28;20120;-76
2022/01/22 06:28:01;;;;;;;9.30;3.40;;;;;;;1.21;100.00;101792.69;5051563;28;20699;-75
2022/01/22 06:30:29;;;;;;;5.35;3.25;;;;;;;1.17;100.00;101795.28;5052629;28;20048;-77
2022/01/22 06:32:56;;;;;;;13.75;3.42;;;;;;;1.15;100.00;101800.50;5069620;28;20127;-75
2022/01/22 06:35:23;;;;;;;11.60;3.60;;;;;;;1.14;100.00;101803.97;5044798;28;20146;-75
2022/01/22 06:37:51;;;;;;;7.47;3.35;;;;;;;1.14;100.00;101816.94;5028919;28;20040;-75
2022/01/22 06:42:45;;;;;;;11.20;3.53;;;;;;;1.09;100.00;101821.25;5063152;28;20102;-74
2022/01/22 06:45:15;;;;;;;7.60;4.10;;;;;;;1.05;100.00;101810.91;5062848;28;20059;-76
2022/01/22 06:47:42;;;;;;;12.77;3.25;;;;;;;1.04;100.00;101810.03;5063828;28;20341;-75
2022/01/22 06:50:10;;;;;;;7.20;3.30;;;;;;;1.03;100.00;101821.25;5050053;28;20050;-76
2022/01/22 06:52:39;;;;;;;8.70;3.53;;;;;;;0.98;100.00;101822.97;5043869;28;20037;-76
2022/01/22 06:55:07;;;;;;;8.63;3.38;;;;;;;0.91;100.00;101829.91;5048271;28;20052;-74
2022/01/22 06:57:35;;;;;;;8.40;3.45;;;;;;;0.93;100.00;101832.50;5060193;28;20032;-72
2022/01/22 07:00:04;;;;;;;9.60;4.13;;;;;;;0.91;100.00;101835.09;5040066;28;20056;-75
2022/01/22 07:02:31;;;;;;;6.80;3.70;;;;;;;0.92;100.00;101851.50;5060022;28;20066;-75
2022/01/22 07:04:58;;;;;;;10.30;4.20;;;;;;;0.97;100.00;101861.00;5057288;28;20078;-74
2022/01/22 07:07:25;;;;;;;8.13;3.50;;;;;;;1.00;100.00;101852.38;5054378;28;20121;-75
2022/01/22 07:09:53;;;;;;;8.40;4.03;;;;;;;0.97;100.00;101854.97;5065073;28;20130;-76
2022/01/22 07:12:20;;;;;;;8.07;3.72;;;;;;;0.98;100.00;101862.72;5059350;28;20116;-75
2022/01/22 07:14:49;;;;;;;12.93;3.78;;;;;;;0.98;100.00;101870.50;5046344;28;20139;-75
2022/01/22 07:17:17;;;;;;;11.38;4.18;;;;;;;1.03;100.00;101875.69;5048861;28;20040;-75
2022/01/22 07:19:44;;;;;;;8.15;3.78;;;;;;;1.06;100.00;101874.84;5028976;28;20135;-75
2022/01/22 07:23:17;;;;;;;7.78;3.50;;;;;;;1.09;100.00;101867.09;5048201;28;20124;-75
2022/01/22 07:25:08;;;;;;;11.25;3.47;;;;;;;1.06;100.00;101873.13;5061759;28;20405;-76
2022/01/22 07:27:35;;;;;;;7.68;4.07;;;;;;;1.12;100.00;101873.09;5082859;28;20568;-74
2022/01/22 07:30:03;;;;;;;12.68;3.95;;;;;;;1.19;100.00;101872.25;5047176;28;20299;-74
2022/01/22 07:32:35;;;;;;;10.32;3.42;;;;;;;1.25;100.00;101872.25;5077765;28;20070;-76
2022/01/22 07:35:04;;;;;;;8.45;3.65;;;;;;;1.40;100.00;101876.56;5079292;28;20105;-75
2022/01/22 07:37:31;;;;;;;11.15;3.53;;;;;;;1.52;100.00;101868.75;5043638;28;20063;-75
2022/01/22 07:40:07;;;;;;;8.05;3.45;;;;;;;1.55;100.00;101874.81;5037512;28;20048;-74
2022/01/22 07:42:34;;;;;;;7.05;3.33;;;;;;;1.62;100.00;101880.00;5045010;28;20106;-75
2022/01/22 07:45:02;;;;;;;7.40;3.03;;;;;;;1.67;100.00;101880.00;5047883;28;20470;-75
2022/01/22 07:47:30;;;;;;;10.50;3.63;;;;;;;1.76;100.00;101879.97;5060065;28;20132;-74
2022/01/22 07:49:57;;;;;;;10.60;3.42;;;;;;;1.82;100.00;101890.34;5048196;28;20144;-75
2022/01/22 07:52:24;;;;;;;9.52;3.67;;;;;;;1.93;100.00;101890.28;5062497;28;20127;-74
2022/01/22 07:54:52;;;;;;;10.90;3.58;;;;;;;1.97;100.00;101882.50;5045126;28;20131;-76
2022/01/22 07:57:19;;;;;;;10.13;3.88;;;;;;;1.99;100.00;101888.56;5042294;28;20480;-75
2022/01/22 07:59:46;;;;;;;10.63;3.90;;;;;;;2.00;100.00;101892.00;5022960;28;20052;-76
2022/01/22 08:02:14;;;;;;;13.73;3.92;;;;;;;2.06;100.00;101897.19;5025026;28;20040;-77
2022/01/22 08:04:46;;;;;;;7.43;3.40;;;;;;;2.11;100.00;101902.34;5037089;28;20067;-76
2022/01/22 08:07:14;;;;;;;9.10;3.80;;;;;;;2.15;100.00;101904.06;5042895;28;20114;-75
2022/01/22 08:09:41;;;;;;;11.18;3.47;;;;;;;2.18;100.00;101902.34;5057980;28;20080;-76
2022/01/22 08:12:09;;;;;;;9.77;3.92;;;;;;;2.23;100.00;101902.31;5042688;28;20052;-76
2022/01/22 08:14:37;;;;;;;8.77;3.55;;;;;;;2.18;100.00;101894.53;5027384;28;20043;-76
2022/01/22 08:17:09;;;;;;;11.32;3.55;;;;;;;2.16;100.00;101895.41;5032227;28;20052;-76
2022/01/22 08:19:37;;;;;;;13.02;4.18;;;;;;;2.12;100.00;101904.97;5059092;28;20083;-77
2022/01/22 08:22:04;;;;;;;9.38;3.53;;;;;;;2.18;100.00;101914.47;5050680;28;20660;-76
2022/01/22 08:24:32;;;;;;;11.68;3.85;;;;;;;2.28;100.00;101921.34;5047206;28;20143;-76
2022/01/22 08:29:32;;;;;;;8.80;3.95;;;;;;;2.43;100.00;101929.09;5057503;28;20533;-77
2022/01/22 08:32:08;;;;;;;18.00;4.93;;;;;;;2.47;100.00;101928.19;5047857;28;20075;-76
2022/01/22 08:37:23;;;;;;;10.93;4.38;;;;;;;2.62;100.00;101948.06;5065367;28;20128;-76
2022/01/22 08:39:50;;;;;;;11.02;4.45;;;;;;;2.61;100.00;101945.44;5064416;28;20041;-76
2022/01/22 08:42:20;;;;;;;14.60;4.80;;;;;;;2.67;100.00;101946.31;5065188;28;20036;-76
2022/01/22 08:44:48;;;;;;;13.73;4.22;;;;;;;2.70;100.00;101953.22;5043238;28;20063;-76
2022/01/22 08:47:18;;;;;;;13.15;4.60;;;;;;;2.94;100.00;101945.28;5068450;28;20024;-76
2022/01/22 08:49:46;;;;;;;11.10;4.70;;;;;;;3.20;100.00;101957.25;5065392;28;20045;-76
2022/01/22 08:52:15;;;;;;;11.25;4.13;;;;;;;3.42;100.00;101957.94;5047075;28;20594;-76
2022/01/22 08:54:44;;;;;;;16.45;5.00;;;;;;;3.50;100.00;101958.75;5065325;28;20513;-76
2022/01/22 08:57:11;;;;;;;11.45;4.07;;;;;;;3.72;100.00;101959.44;5071917;28;20056;-75
2022/01/22 08:59:39;;;;;;;12.43;3.85;;;;;;;3.83;100.00;101969.72;5049292;28;20044;-74
2022/01/22 09:02:06;;;;;;;11.40;3.92;;;;;;;3.78;100.00;101974.97;5048897;28;20123;-77
2022/01/22 09:04:34;;;;;;;10.07;4.15;;;;;;;3.64;100.00;101979.47;5054081;28;20051;-74
2022/01/22 09:07:01;;;;;;;10.27;4.00;;;;;;;3.54;100.00;101982.13;5040624;28;20063;-75
2022/01/22 09:09:28;;;;;;;12.05;4.40;;;;;;;3.48;100.00;101991.75;5049927;28;20072;-75
2022/01/22 09:11:56;;;;;;;14.45;4.45;;;;;;;3.49;100.00;101990.88;5059727;28;20088;-73
2022/01/22 09:14:24;;;;;;;8.07;3.40;;;;;;;3.47;100.00;101979.63;5065974;28;20075;-75
2022/01/22 09:16:52;;;;;;;12.57;3.67;;;;;;;3.44;100.00;101996.13;5056937;28;20131;-74
2022/01/22 09:19:22;;;;;;;9.82;3.40;;;;;;;3.42;99.96;101983.97;5063527;28;20067;-75
2022/01/22 09:21:50;;;;;;;8.23;3.80;;;;;;;3.48;100.00;101991.75;5034010;28;20068;-75
2022/01/22 09:24:17;;;;;;;8.27;3.22;;;;;;;3.60;100.00;101998.59;5062520;28;20068;-73
2022/01/22 09:26:45;;;;;;;11.07;3.33;;;;;;;3.66;99.76;102006.38;5061489;28;20455;-74
2022/01/22 09:29:12;;;;;;;10.50;3.03;;;;;;;3.69;98.90;102015.03;5050283;28;20135;-75
2022/01/22 09:31:39;;;;;;;13.18;2.80;;;;;;;3.64;97.89;102021.13;5032150;28;20048;-75
2022/01/22 09:34:07;;;;;;;8.60;3.22;;;;;;;3.83;98.66;102025.31;5048758;28;20123;-76
2022/01/22 09:36:34;;;;;;;6.72;2.40;;;;;;;3.85;96.90;102020.09;5046078;28;20059;-75
2022/01/22 09:39:03;;;;;;;13.10;2.80;;;;;;;3.90;94.75;102024.38;5050952;28;20127;-74
2022/01/22 09:41:31;;;;;;;7.47;2.65;;;;;;;4.09;94.32;102025.06;5057239;28;20051;-76
2022/01/22 09:44:15;;;;;;;10.63;2.65;;;;;;;4.28;92.79;102025.78;5026708;28;20127;-77
2022/01/22 09:46:44;;;;;;;9.50;2.92;;;;;;;4.23;91.89;102024.94;5073972;28;20049;-75
2022/01/22 09:49:12;;;;;;;5.00;2.30;;;;;;;4.19;91.00;102041.50;5030257;28;20136;-76
2022/01/22 09:51:39;;;;;;;3.88;1.70;;;;;;;4.15;89.61;102038.06;5046259;28;20241;-74
2022/01/22 09:54:07;;;;;;;5.93;2.13;;;;;;;4.24;90.90;102026.69;5066438;28;20112;-76
2022/01/22 09:56:35;;;;;;;6.05;2.17;;;;;;;4.27;91.62;102035.31;5062535;28;20115;-76
2022/01/22 09:59:02;;;;;;;5.88;2.03;;;;;;;4.25;91.08;102037.06;5048954;28;20538;-75
2022/01/22 10:01:33;;;;;;;7.65;2.45;;;;;;;4.39;91.27;102036.94;5064397;28;20045;-76
2022/01/22 10:04:06;;;;;;;10.57;2.78;;;;;;;4.39;90.23;102041.28;5064449;28;20044;-75
2022/01/22 10:06:46;;;;;;;10.13;2.30;;;;;;;4.37;89.93;102041.31;5044684;28;20078;-75
2022/01/22 10:09:25;;;;;;;8.07;2.03;;;;;;;4.43;89.75;102050.81;5029670;28;20442;-75
2022/01/22 10:12:12;;;;;;;11.07;2.88;;;;;;;4.37;87.83;102049.13;5075610;28;20061;-76
2022/01/22 10:15:03;;;;;;;6.03;2.03;;;;;;;4.37;87.64;102045.63;5045818;28;20051;-75
2022/01/22 10:17:46;;;;;;;7.70;1.70;;;;;;;4.27;88.14;102052.69;5044907;28;20060;-75
2022/01/22 10:20:29;;;;;;;9.05;1.92;;;;;;;4.60;89.80;102054.09;5046374;28;20048;-77
2022/01/22 10:23:03;;;;;;;5.97;1.70;;;;;;;4.61;85.99;102048.00;5043382;28;20051;-76
2022/01/22 10:25:39;;;;;;;6.68;1.70;;;;;;;4.59;85.71;102047.13;5063446;28;20051;-76
2022/01/22 10:28:19;;;;;;;3.30;1.80;;;;;;;4.83;85.29;102040.78;5031411;28;20484;-77
2022/01/22 10:30:59;;;;;;;3.50;1.40;;;;;;;5.03;84.31;102046.59;5057674;28;20136;-75
2022/01/22 10:33:32;;;;;;;5.25;2.00;;;;;;;5.52;83.64;102043.28;5041680;28;20098;-77
2022/01/22 10:36:14;;;;;;;7.10;2.20;;;;;;;5.93;80.53;102051.38;5050010;28;20040;-76
2022/01/22 10:38:46;;;;;;;6.10;2.08;;;;;;;5.89;79.87;102060.13;5061549;28;20369;-75
2022/01/22 10:41:18;;;;;;;11.73;3.50;;;;;;;5.86;78.33;102063.66;5042353;28;20514;-85
2022/01/22 10:43:52;;;;;;;7.35;2.88;;;;;;;5.93;78.00;102051.38;5044188;28;20045;-76
2022/01/22 10:49:24;;;;;;;6.60;2.25;;;;;;;5.89;76.82;102053.16;5036572;28;20519;-77
2022/01/22 10:51:59;;;;;;;5.47;2.65;;;;;;;5.91;75.79;102053.13;5067436;28;20582;-75
2022/01/22 10:54:29;;;;;;;6.80;2.13;;;;;;;5.95;76.21;102052.25;5037541;28;20098;-77
2022/01/22 10:57:22;;;;;;;7.53;2.20;;;;;;;5.91;75.78;102048.78;5027146;28;20575;-75
2022/01/22 10:59:55;;;;;;;9.13;3.13;;;;;;;5.72;76.13;102049.94;5058406;28;20048;-75
2022/01/22 11:02:33;;;;;;;6.65;2.28;;;;;;;5.90;76.31;102056.63;5046790;28;20143;-74
2022/01/22 11:05:02;;;;;;;8.15;2.22;;;;;;;6.05;74.81;102054.66;5035929;28;20048;-76
2022/01/22 11:07:29;;;;;;;7.53;2.15;;;;;;;6.14;75.36;102050.16;5048470;28;21936;-75
2022/01/22 11:10:01;;;;;;;9.60;2.50;;;;;;;6.46;74.34;102065.25;5057245;28;20072;-76
2022/01/22 11:12:28;;;;;;;5.82;1.77;;;;;;;6.65;74.23;102053.53;5049631;28;21151;-76
2022/01/22 11:14:56;;;;;;;7.32;2.67;;;;;;;6.80;73.23;102055.00;5028883;28;20512;-77
2022/01/22 11:17:34;;;;;;;12.80;3.15;;;;;;;7.09;71.79;102055.25;5045344;28;20049;-75
2022/01/22 11:20:02;;;;;;;6.00;2.65;;;;;;;7.18;71.50;102048.94;5042688;28;20090;-77
2022/01/22 11:22:31;;;;;;;8.30;2.55;;;;;;;6.70;68.77;102059.53;5057611;28;20464;-76
2022/01/22 11:24:58;;;;;;;6.70;2.38;;;;;;;6.29;71.01;102049.88;5026337;28;20127;-75
2022/01/22 11:27:26;;;;;;;5.80;2.35;;;;;;;6.17;71.66;102050.97;5062963;28;20056;-76
2022/01/22 11:30:05;;;;;;;7.32;2.20;;;;;;;6.02;71.81;102044.25;5047068;28;20076;-75
2022/01/22 11:33:09;;;;;;;6.07;2.35;;;;;;;5.77;73.04;102043.78;5026744;28;20094;-75
2022/01/22 11:35:52;;;;;;;8.80;2.92;;;;;;;5.80;72.74;102040.22;5041018;28;20064;-76
2022/01/22 11:38:27;;;;;;;5.20;2.35;;;;;;;5.89;71.39;102037.47;5043246;28;20148;-76
2022/01/22 11:41:04;;;;;;;;;;;;;;;6.17;70.49;102037.00;5047458;28;20040;-75
2022/01/22 11:44:03;;;;;;;6.60;1.70;;;;;;;6.65;66.21;102039.59;5060641;28;19924;-75
2022/01/22 11:46:37;;;;;;;5.28;1.90;;;;;;;7.08;64.32;102029.09;5059549;28;20049;-75
2022/01/22 11:49:10;;;;;;;5.65;2.00;;;;;;;7.69;61.69;102027.66;5025492;28;20053;-76
2022/01/22 11:51:37;;;;;;;8.35;1.60;;;;;;;7.61;61.56;102033.13;5043317;28;20087;-75
2022/01/22 11:54:04;;;;;;;4.78;2.05;;;;;;;7.43;61.39;102036.16;5040670;28;20457;-75
2022/01/22 11:56:54;;;;;;;7.97;1.75;;;;;;;7.02;61.95;102031.84;5039332;28;20079;-76
2022/01/22 11:59:23;;;;;;;5.10;1.63;;;;;;;6.98;59.71;102044.16;5073877;28;20041;-75
2022/01/22 12:01:53;;;;;;;7.65;2.05;;;;;;;6.71;60.15;102045.59;5061071;28;20073;-75
2022/01/22 12:04:45;;;;;;;3.60;1.80;;;;;;;6.71;63.27;102049.94;5075991;28;20045;-76
2022/01/22 12:07:15;;;;;;;4.75;1.80;;;;;;;6.82;63.18;102051.44;5033739;28;20045;-76
2022/01/22 12:15:07;;;;;;;7.32;2.03;;;;;;;6.41;63.22;102057.50;5057208;28;20048;-76
2022/01/22 12:17:46;;;;;;;5.55;2.13;;;;;;;6.27;61.23;102056.91;5021300;28;20138;-77
2022/01/22 12:20:41;;;;;;;4.22;1.73;;;;;;;5.89;60.82;102044.44;5061305;28;20707;-78
2022/01/22 12:23:09;;;;;;;2.95;1.70;;;;;;;5.68;62.20;102048.28;5066963;28;20098;-76
2022/01/22 12:25:40;;;;;;;4.70;1.52;;;;;;;5.70;61.17;102046.50;5030394;28;20090;-75
2022/01/22 12:28:09;;;;;;;3.63;1.67;;;;;;;5.72;62.02;102052.56;5063895;28;20064;-74
2022/01/22 12:30:42;;;;;;;5.15;1.95;;;;;;;5.58;63.76;102056.28;5066348;28;20040;-75
2022/01/22 12:33:14;;;;;;;6.88;2.13;;;;;;;5.81;64.56;102060.28;5035294;28;20036;-76
2022/01/22 12:35:47;;;;;;;5.43;2.15;;;;;;;5.69;65.13;102056.09;5037119;28;20036;-77
2022/01/22 12:38:35;;;;;;;10.80;2.30;;;;;;;5.67;65.86;102067.44;5034984;28;20139;-75
2022/01/22 12:46:56;;;;;;;8.98;2.50;;;;;;;5.56;65.05;102044.97;5053436;28;20242;-75
2022/01/22 12:49:25;;;;;;;4.80;1.80;;;;;;;5.41;65.63;102049.56;5049828;28;20060;-75
2022/01/22 12:51:57;;;;;;;10.25;3.35;;;;;;;5.39;66.28;102053.94;5031460;28;20070;-77
2022/01/22 12:54:44;;;;;;;10.55;2.85;;;;;;;5.77;64.05;102049.00;5048594;28;20065;-76
2022/01/22 12:57:20;;;;;;;6.28;2.00;;;;;;;5.73;64.06;102056.91;5034450;28;20052;-75
2022/01/22 13:02:41;;;;;;;9.00;2.45;;;;;;;6.77;61.35;102049.81;5066582;28;20043;-75
2022/01/22 13:05:11;;;;;;;3.42;1.80;;;;;;;6.78;57.88;102056.78;5051343;28;20074;-77
2022/01/22 13:07:39;;;;;;;5.95;1.77;;;;;;;6.76;56.96;102053.34;5049852;28;20158;-75
2022/01/22 13:10:08;;;;;;;5.15;1.85;;;;;;;6.31;57.95;102050.72;5045284;28;20499;-74
2022/01/22 13:12:46;;;;;;;5.15;1.88;;;;;;;6.52;54.98;102052.06;5050782;28;20542;-77
2022/01/22 13:15:17;;;;;;;3.90;1.40;;;;;;;6.61;54.39;102054.50;5052622;28;20139;-75
2022/01/22 13:17:52;;;;;;;3.80;1.60;;;;;;;6.76;52.29;102062.06;5035084;28;20110;-76
2022/01/22 13:20:22;;;;;;;3.20;1.20;;;;;;;6.87;51.80;102058.34;5065253;28;20063;-76
2022/01/22 13:22:51;;;;;;;6.38;2.03;;;;;;;7.14;51.09;102049.91;5061908;28;20490;-76